Terminal Aerodrome Forecast
Issued by NWS

Current Version | Previous Version | Text Only | Print | Product List | Glossary On
Versions: 1 2 3 4 5 6 7 8 9 10 11 12 13 14 15 16
000
FTUS42 TJSJ 211300 AAB
TAFIST
TAF AMD
TIST 211340Z 2114/2212 06014KT P6SM VCSH SCT022 BKN040
      TEMPO 2114/2116 05014G27KT 4SM -SHRA BKN025
     FM211630 08013G18KT P6SM VCSH SCT025 BKN050
      TEMPO 2117/2119 SHRA SCT022 BKN040 BKN060
     FM212300 08012KT P6SM VCTS SCT020CB BKN040=

USA.gov is the U.S. government's official web portal to all federal, state and local government web resources and services.